Time;durP1;ratioP1;P1;durP2;ratioP2;P2;SDS_P1;SDS_P2;PMS_P1;PMS_P2;Temp;Humidity;BMP_temperature;BMP_pressure;BME280_temperature;BME280_humidity;BME280_pressure;Samples;Min_cycle;Max_cycle;Signal;HPM_P1;HPM_P2
2023/04/18 00:00:10;;;;;;;6.88;4.95;;;;;;;6.99;85.00;102051.25;4955005;29;20043;-81
2023/04/18 00:02:38;;;;;;;7.13;4.45;;;;;;;6.95;85.63;102045.06;4956119;28;20066;-81
2023/04/18 00:05:08;;;;;;;6.03;4.45;;;;;;;6.96;85.74;102043.34;4954932;29;20093;-81
2023/04/18 00:07:35;;;;;;;5.00;4.20;;;;;;;6.95;85.38;102047.66;4953973;29;20051;-81
2023/04/18 00:10:04;;;;;;;5.97;5.10;;;;;;;6.87;87.36;102041.38;4971715;28;20079;-82
2023/04/18 00:12:33;;;;;;;6.32;5.25;;;;;;;6.79;88.28;102046.34;4955434;29;20114;-80
2023/04/18 00:15:01;;;;;;;6.78;4.88;;;;;;;6.68;90.01;102033.88;4939208;29;20474;-80
2023/04/18 00:17:29;;;;;;;5.10;4.22;;;;;;;6.62;90.34;102047.56;4939091;29;20398;-80
2023/04/18 00:19:57;;;;;;;6.35;5.03;;;;;;;6.58;91.04;102040.50;4980871;23;20050;-81
2023/04/18 00:22:24;;;;;;;8.07;5.40;;;;;;;6.53;91.98;102043.00;4942783;28;20113;-81
2023/04/18 00:24:52;;;;;;;5.97;4.75;;;;;;;6.49;92.02;102048.03;4943274;28;20407;-80
2023/04/18 00:27:19;;;;;;;5.05;4.53;;;;;;;6.42;92.58;102050.44;4962230;28;20086;-80
2023/04/18 00:29:46;;;;;;;6.18;4.97;;;;;;;6.37;92.77;102053.75;4976855;28;20038;-81
2023/04/18 00:32:13;;;;;;;6.20;5.05;;;;;;;6.34;92.66;102048.47;4973877;28;20097;-81
2023/04/18 00:34:40;;;;;;;8.50;5.93;;;;;;;6.35;93.29;102056.31;4958059;28;20038;-81
2023/04/18 00:37:07;;;;;;;8.07;5.60;;;;;;;6.33;93.10;102047.56;4961309;28;20457;-81
2023/04/18 00:39:35;;;;;;;7.45;5.60;;;;;;;6.33;92.88;102052.78;4961694;28;20047;-81
2023/04/18 00:42:03;;;;;;;9.73;6.03;;;;;;;6.31;93.06;102050.94;4961250;28;20062;-81
2023/04/18 00:44:31;;;;;;;8.23;5.70;;;;;;;6.29;93.85;102053.50;4961329;28;20043;-81
2023/04/18 00:46:59;;;;;;;5.93;5.35;;;;;;;6.32;94.01;102048.41;4978826;28;20034;-81
2023/04/18 00:49:26;;;;;;;10.02;5.05;;;;;;;6.33;93.81;102042.38;4978324;28;20505;-80
2023/04/18 00:51:55;;;;;;;7.45;5.80;;;;;;;6.31;94.07;102049.25;4962000;28;20038;-80
2023/04/18 00:54:24;;;;;;;7.50;5.45;;;;;;;6.28;94.90;102046.53;4965843;28;20062;-79
2023/04/18 00:56:51;;;;;;;6.22;5.63;;;;;;;6.27;94.89;102050.88;4975986;28;20062;-80
2023/04/18 00:59:18;;;;;;;9.02;6.07;;;;;;;6.30;94.90;102044.88;4990708;28;20122;-81
2023/04/18 01:01:44;;;;;;;10.20;5.55;;;;;;;6.33;94.77;102055.38;4961654;28;20070;-80
2023/04/18 01:04:11;;;;;;;5.25;4.75;;;;;;;6.32;94.96;102043.19;4960828;28;20167;-80
2023/04/18 01:06:38;;;;;;;7.20;5.65;;;;;;;6.29;95.39;102046.59;4976480;28;20118;-80
2023/04/18 01:09:05;;;;;;;8.10;5.78;;;;;;;6.32;95.15;102043.19;4960946;28;20039;-80
2023/04/18 01:11:32;;;;;;;8.10;5.88;;;;;;;6.38;95.42;102042.53;4977564;28;20043;-81
2023/04/18 01:14:04;;;;;;;8.20;5.45;;;;;;;6.38;95.68;102042.53;4976873;28;20138;-81
2023/04/18 01:16:32;;;;;;;8.93;5.97;;;;;;;6.36;95.19;102047.69;4960695;28;20042;-80
2023/04/18 01:19:03;;;;;;;9.05;6.10;;;;;;;6.33;95.30;102038.91;4977189;28;20043;-79
2023/04/18 01:21:35;;;;;;;8.23;5.93;;;;;;;6.28;95.67;102046.53;4978291;28;20528;-81
2023/04/18 01:24:14;;;;;;;8.25;5.95;;;;;;;6.30;95.93;102042.28;4962769;28;20061;-81
2023/04/18 01:26:43;;;;;;;7.13;5.38;;;;;;;6.29;95.99;102041.38;4962442;28;20046;-80
2023/04/18 01:29:10;;;;;;;7.60;5.50;;;;;;;6.28;96.23;102050.03;4946634;28;20568;-80
2023/04/18 01:31:38;;;;;;;7.22;4.88;;;;;;;6.30;96.37;102039.69;4964437;28;20055;-80
2023/04/18 01:34:05;;;;;;;8.25;5.50;;;;;;;6.31;96.28;102049.25;4969882;28;20090;-81
2023/04/18 01:36:33;;;;;;;9.27;5.97;;;;;;;6.27;97.51;102045.66;4978140;28;20039;-81
2023/04/18 01:39:00;;;;;;;10.32;6.47;;;;;;;6.29;97.10;102043.97;4981186;28;20043;-80
2023/04/18 01:41:28;;;;;;;11.02;6.53;;;;;;;6.27;97.46;102043.06;4979669;28;20423;-80
2023/04/18 01:43:55;;;;;;;9.57;6.95;;;;;;;6.21;99.94;102042.88;4976906;28;20486;-81
2023/04/18 01:46:21;;;;;;;9.82;6.53;;;;;;;6.10;100.00;102036.44;4975459;28;20047;-80
2023/04/18 01:48:48;;;;;;;12.95;7.05;;;;;;;6.03;100.00;102029.28;4980145;28;20110;-79
2023/04/18 01:51:14;;;;;;;9.75;6.40;;;;;;;6.04;100.00;102031.06;4979958;28;20069;-79
2023/04/18 01:53:41;;;;;;;11.68;7.50;;;;;;;6.02;100.00;102033.59;4978626;28;20050;-80
2023/04/18 01:56:09;;;;;;;9.77;6.90;;;;;;;6.05;100.00;102030.22;4992060;28;20042;-80
2023/04/18 01:58:36;;;;;;;11.20;7.30;;;;;;;6.08;100.00;102030.31;4991134;28;20123;-81
2023/04/18 02:01:03;;;;;;;10.25;7.47;;;;;;;6.07;100.00;102023.34;4991076;28;20126;-81
2023/04/18 02:03:32;;;;;;;8.73;7.18;;;;;;;6.11;100.00;102025.22;4974267;28;20061;-79
2023/04/18 02:06:00;;;;;;;13.07;6.78;;;;;;;6.13;100.00;102024.44;4986214;28;20043;-79
2023/04/18 02:08:27;;;;;;;12.13;7.85;;;;;;;6.16;100.00;102027.97;4984533;28;20039;-80
2023/04/18 02:10:55;;;;;;;12.18;7.57;;;;;;;6.17;100.00;102029.75;4950764;28;20057;-81
2023/04/18 02:13:22;;;;;;;11.48;7.47;;;;;;;6.13;100.00;102024.44;4948380;28;20129;-81
2023/04/18 02:15:48;;;;;;;11.40;8.80;;;;;;;6.09;100.00;102024.28;4962113;28;20043;-80
2023/04/18 02:18:16;;;;;;;9.40;6.95;;;;;;;6.10;100.00;102026.03;4962064;28;20410;-81
2023/04/18 02:20:42;;;;;;;11.20;7.95;;;;;;;6.08;100.00;102026.00;4965521;28;20047;-80
2023/04/18 02:23:09;;;;;;;11.48;7.43;;;;;;;6.09;100.00;102029.50;4983964;28;20494;-80
2023/04/18 02:25:36;;;;;;;12.43;8.10;;;;;;;6.06;100.00;102037.19;4964716;28;20099;-80
2023/04/18 02:28:03;;;;;;;12.40;7.65;;;;;;;6.02;100.00;102033.59;4964833;28;20051;-80
2023/04/18 02:30:30;;;;;;;13.02;8.38;;;;;;;5.96;100.00;102039.44;4950655;28;20051;-80
2023/04/18 02:32:56;;;;;;;11.88;9.18;;;;;;;5.86;100.00;102033.91;4966558;28;20458;-80
2023/04/18 02:35:23;;;;;;;12.45;8.80;;;;;;;5.80;100.00;102037.19;4969359;28;20134;-80
2023/04/18 02:37:50;;;;;;;17.73;8.82;;;;;;;5.69;100.00;102030.75;4971007;28;20072;-81
2023/04/18 02:40:17;;;;;;;11.95;7.90;;;;;;;5.60;100.00;102033.94;4967063;28;20042;-80
2023/04/18 02:42:44;;;;;;;13.20;9.48;;;;;;;5.59;100.00;102034.75;4969528;28;20044;-82
2023/04/18 02:45:11;;;;;;;10.65;8.18;;;;;;;5.57;100.00;102045.09;4969247;28;20509;-82
2023/04/18 02:47:39;;;;;;;13.10;8.73;;;;;;;5.51;100.00;102037.09;4969351;28;20043;-81
2023/04/18 02:50:07;;;;;;;15.45;9.43;;;;;;;5.49;100.00;102045.66;4964222;28;20035;-81
2023/04/18 02:52:33;;;;;;;11.73;8.07;;;;;;;5.50;100.00;102039.63;4964786;28;20050;-81
2023/04/18 02:55:00;;;;;;;12.00;9.68;;;;;;;5.49;100.00;102033.56;4963789;28;20049;-81
2023/04/18 02:57:26;;;;;;;11.95;9.02;;;;;;;5.45;100.00;102040.38;4965467;28;20053;-81
2023/04/18 02:59:53;;;;;;;12.25;9.40;;;;;;;5.46;100.00;102041.25;4957791;28;20066;-80
2023/04/18 03:02:20;;;;;;;13.52;9.23;;;;;;;5.47;100.00;102043.91;4958642;28;20162;-81
2023/04/18 03:04:46;;;;;;;12.70;8.75;;;;;;;5.49;100.00;102041.38;4958719;28;20042;-81
2023/04/18 03:07:13;;;;;;;15.13;9.45;;;;;;;5.50;100.00;102037.03;4927056;28;20047;-80
2023/04/18 03:09:39;;;;;;;13.27;9.02;;;;;;;5.48;100.00;102052.56;4947164;28;20043;-81
2023/04/18 03:12:06;;;;;;;11.90;8.05;;;;;;;5.47;100.00;102040.41;4959202;28;20496;-80
2023/04/18 03:14:32;;;;;;;12.77;8.40;;;;;;;5.48;100.00;102047.38;4943070;28;20137;-80
2023/04/18 03:16:59;;;;;;;11.00;8.93;;;;;;;5.44;100.00;102045.50;4958645;28;20054;-80
2023/04/18 03:19:25;;;;;;;12.82;8.90;;;;;;;5.47;100.00;102037.81;4958336;28;20053;-81
2023/04/18 03:21:52;;;;;;;12.93;9.30;;;;;;;5.49;100.00;102050.84;4942962;28;20050;-81
2023/04/18 03:24:18;;;;;;;12.20;8.63;;;;;;;5.51;100.00;102039.69;4958775;28;20042;-80
2023/04/18 03:26:45;;;;;;;11.25;8.32;;;;;;;5.51;100.00;102052.66;4963026;28;20046;-78
2023/04/18 03:29:12;;;;;;;15.30;8.65;;;;;;;5.45;100.00;102055.94;4963388;28;20031;-80
2023/04/18 03:31:40;;;;;;;14.85;8.85;;;;;;;5.46;100.00;102049.94;4977183;28;20057;-80
2023/04/18 03:34:06;;;;;;;11.52;8.98;;;;;;;5.47;100.00;102043.91;4973959;28;20070;-79
2023/04/18 03:36:33;;;;;;;14.05;8.52;;;;;;;5.47;100.00;102053.41;4958745;28;20039;-80
2023/04/18 03:38:59;;;;;;;12.23;8.95;;;;;;;5.47;100.00;102056.00;4941857;28;20043;-79
2023/04/18 03:41:26;;;;;;;11.10;9.52;;;;;;;5.44;100.00;102053.31;4958010;28;20045;-79
2023/04/18 03:43:53;;;;;;;15.27;10.10;;;;;;;5.45;100.00;102047.28;4958053;28;20126;-79
2023/04/18 03:46:20;;;;;;;16.08;9.25;;;;;;;5.47;100.00;102059.50;4957813;28;20362;-79
2023/04/18 03:48:47;;;;;;;15.85;9.63;;;;;;;5.50;100.00;102061.31;4958819;28;20062;-79
2023/04/18 03:51:14;;;;;;;13.90;10.05;;;;;;;5.53;100.00;102060.50;4979280;28;20039;-78
2023/04/18 03:53:40;;;;;;;14.98;9.80;;;;;;;5.51;100.00;102060.47;4977451;28;20062;-78
2023/04/18 03:56:07;;;;;;;15.40;11.27;;;;;;;5.51;100.00;102062.19;4958576;28;20039;-83
2023/04/18 03:58:34;;;;;;;16.65;10.75;;;;;;;5.53;100.00;102063.09;4943079;28;20071;-79
2023/04/18 04:01:00;;;;;;;15.73;10.73;;;;;;;5.54;100.00;102060.59;4958055;28;20046;-78
2023/04/18 04:03:27;;;;;;;17.20;11.10;;;;;;;5.56;100.00;102065.84;4957710;28;20048;-78
2023/04/18 04:05:54;;;;;;;20.52;11.35;;;;;;;5.58;100.00;102066.75;4957909;28;20492;-79
2023/04/18 04:08:22;;;;;;;16.13;10.55;;;;;;;5.60;100.00;102065.09;4974465;28;20490;-79
2023/04/18 04:10:48;;;;;;;16.00;10.75;;;;;;;5.59;100.00;102068.53;4975449;28;20039;-79
2023/04/18 04:13:14;;;;;;;12.77;9.73;;;;;;;5.61;100.00;102066.88;4961122;28;20042;-78
2023/04/18 04:15:41;;;;;;;14.15;9.63;;;;;;;5.62;100.00;102063.44;4961285;28;20051;-78
2023/04/18 04:18:07;;;;;;;16.15;10.32;;;;;;;5.67;100.00;102068.78;4978956;28;20046;-78
2023/04/18 04:20:34;;;;;;;18.33;11.20;;;;;;;5.67;100.00;102068.78;4961048;28;20082;-78
2023/04/18 04:23:00;;;;;;;15.95;11.02;;;;;;;5.65;100.00;102060.06;4945135;28;20049;-79
2023/04/18 04:25:28;;;;;;;19.02;10.23;;;;;;;5.65;100.00;102066.13;4961058;28;20038;-78
2023/04/18 04:27:55;;;;;;;17.35;11.02;;;;;;;5.66;100.00;102069.59;4944895;28;20581;-79
2023/04/18 04:30:22;;;;;;;18.70;10.00;;;;;;;5.65;100.00;102070.47;4961005;28;20494;-80
2023/04/18 04:32:48;;;;;;;15.13;11.05;;;;;;;5.64;100.00;102074.75;4961358;28;20054;-81
2023/04/18 04:35:15;;;;;;;15.15;9.07;;;;;;;5.64;100.00;102066.97;4944889;28;20081;-81
2023/04/18 04:37:42;;;;;;;14.90;9.82;;;;;;;5.65;100.00;102084.31;4961149;28;20371;-80
2023/04/18 04:40:10;;;;;;;14.77;10.15;;;;;;;5.68;100.00;102079.22;4944990;28;20473;-80
2023/04/18 04:42:37;;;;;;;17.15;10.85;;;;;;;5.73;100.00;102079.41;4944500;28;20062;-79
2023/04/18 04:45:05;;;;;;;14.82;9.57;;;;;;;5.73;100.00;102080.25;4960888;28;20038;-79
2023/04/18 04:47:31;;;;;;;17.17;10.20;;;;;;;5.72;100.00;102088.91;4961438;28;20109;-80
2023/04/18 04:49:58;;;;;;;16.70;9.85;;;;;;;5.71;100.00;102086.25;4960733;28;20066;-79
2023/04/18 04:52:24;;;;;;;17.23;9.48;;;;;;;5.69;100.00;102088.78;4961052;28;20049;-79
2023/04/18 04:54:51;;;;;;;16.88;9.93;;;;;;;5.67;100.00;102086.97;4960539;28;20061;-79
2023/04/18 04:57:17;;;;;;;17.45;9.85;;;;;;;5.69;100.00;102090.53;4944685;28;20533;-80
2023/04/18 04:59:44;;;;;;;15.68;9.80;;;;;;;5.73;100.00;102088.06;4960606;28;20035;-79
2023/04/18 05:02:11;;;;;;;14.27;9.30;;;;;;;5.78;100.00;102088.22;4944568;28;20053;-79
2023/04/18 05:04:37;;;;;;;14.15;8.52;;;;;;;5.80;100.00;102086.56;4960682;28;20046;-79
2023/04/18 05:07:04;;;;;;;15.10;9.60;;;;;;;5.83;100.00;102090.97;4944970;28;20050;-79
2023/04/18 05:09:30;;;;;;;12.68;9.23;;;;;;;5.84;100.00;102095.34;4944728;28;20478;-80
2023/04/18 05:11:57;;;;;;;12.30;7.85;;;;;;;5.85;100.00;102100.59;4960581;28;20038;-80
2023/04/18 05:14:24;;;;;;;14.52;8.93;;;;;;;5.90;100.00;102104.22;4960290;28;20049;-80
2023/04/18 05:16:50;;;;;;;14.77;9.45;;;;;;;5.88;100.00;102103.31;4960551;28;20047;-81
2023/04/18 05:19:17;;;;;;;18.10;9.90;;;;;;;5.90;100.00;102093.81;4961006;28;20393;-82
2023/04/18 05:21:43;;;;;;;15.18;9.02;;;;;;;5.87;100.00;102098.06;4959800;28;20055;-80
2023/04/18 05:24:10;;;;;;;15.48;9.00;;;;;;;5.89;100.00;102099.88;4959955;28;20055;-80
2023/04/18 05:26:37;;;;;;;13.07;8.38;;;;;;;5.93;100.00;102106.03;4976939;28;20086;-80
2023/04/18 05:29:03;;;;;;;14.15;8.65;;;;;;;5.95;100.00;102115.66;4945708;28;20050;-79
2023/04/18 05:31:30;;;;;;;12.73;8.85;;;;;;;5.96;100.00;102112.22;4946822;28;20086;-80
2023/04/18 05:33:59;;;;;;;12.30;8.77;;;;;;;6.00;100.00;102117.56;4960499;28;20374;-80
2023/04/18 05:36:25;;;;;;;10.32;7.60;;;;;;;5.99;100.00;102111.50;4944361;28;20398;-80
2023/04/18 05:38:52;;;;;;;15.50;11.35;;;;;;;6.02;100.00;102113.31;4944306;28;20050;-80
2023/04/18 05:41:18;;;;;;;12.63;8.30;;;;;;;6.03;100.00;102123.75;4944627;28;20054;-80
2023/04/18 05:43:45;;;;;;;12.98;8.40;;;;;;;6.08;100.00;102116.13;4944891;28;20052;-81
2023/04/18 05:46:12;;;;;;;15.15;9.27;;;;;;;6.07;100.00;102109.16;4944316;28;20412;-81
2023/04/18 05:48:38;;;;;;;12.05;8.25;;;;;;;6.12;100.00;102117.97;4961444;28;20046;-81
2023/04/18 05:51:05;;;;;;;14.23;9.73;;;;;;;6.15;100.00;102132.81;4960620;28;20094;-81
2023/04/18 05:53:32;;;;;;;19.85;12.80;;;;;;;6.15;100.00;102122.41;4977812;28;20133;-81
2023/04/18 05:55:58;;;;;;;13.63;8.63;;;;;;;6.14;100.00;102126.72;4964896;28;20042;-81
2023/04/18 05:58:27;;;;;;;15.18;9.07;;;;;;;6.19;100.00;102119.97;4991503;28;20062;-80
2023/04/18 06:00:54;;;;;;;11.48;8.40;;;;;;;6.16;100.00;102125.03;4963384;28;20049;-81
2023/04/18 06:03:20;;;;;;;13.95;8.88;;;;;;;6.14;100.00;102134.53;4981666;28;20047;-79
2023/04/18 06:05:47;;;;;;;13.73;9.73;;;;;;;6.17;100.00;102134.63;4973367;28;20043;-81
2023/04/18 06:08:13;;;;;;;12.57;8.30;;;;;;;6.17;100.00;102136.34;4962930;28;20047;-81
2023/04/18 06:10:39;;;;;;;13.10;9.48;;;;;;;6.18;100.00;102138.09;4960728;28;20049;-81
2023/04/18 06:13:06;;;;;;;14.27;9.48;;;;;;;6.26;100.00;102137.53;4959333;28;20478;-81
2023/04/18 06:15:32;;;;;;;21.20;11.63;;;;;;;6.28;100.00;102141.06;4959509;28;20540;-81
2023/04/18 06:17:59;;;;;;;13.02;9.38;;;;;;;6.35;100.00;102143.84;4959930;28;20046;-81
2023/04/18 06:20:25;;;;;;;14.68;8.63;;;;;;;6.41;100.00;102136.25;4959243;28;20054;-81
2023/04/18 06:22:52;;;;;;;47.08;18.52;;;;;;;6.42;100.00;102136.28;4959864;28;20053;-82
2023/04/18 06:25:18;;;;;;;14.90;10.48;;;;;;;6.46;100.00;102140.75;4959516;28;20043;-82
2023/04/18 06:27:45;;;;;;;13.10;9.57;;;;;;;6.47;100.00;102144.25;4958971;28;20047;-81
2023/04/18 06:30:12;;;;;;;14.30;8.50;;;;;;;6.48;100.00;102147.72;4959090;28;20042;-80
2023/04/18 06:32:39;;;;;;;15.23;10.15;;;;;;;6.46;100.00;102135.53;4959714;28;20073;-81
2023/04/18 06:35:06;;;;;;;15.88;10.48;;;;;;;6.49;100.00;102150.38;4943558;28;20074;-80
2023/04/18 06:37:32;;;;;;;12.77;9.57;;;;;;;6.51;100.00;102155.66;4943075;28;20046;-80
2023/04/18 06:39:59;;;;;;;16.90;10.55;;;;;;;6.53;100.00;102154.88;4943319;28;20043;-80
2023/04/18 06:42:26;;;;;;;14.77;9.90;;;;;;;6.53;100.00;102160.06;4959528;28;20125;-81
2023/04/18 06:44:52;;;;;;;15.18;9.88;;;;;;;6.54;100.00;102154.00;4959557;28;20047;-80
2023/04/18 06:47:19;;;;;;;14.85;10.10;;;;;;;6.53;100.00;102153.97;4943278;28;20054;-80
2023/04/18 06:49:45;;;;;;;15.88;10.32;;;;;;;6.58;100.00;102153.28;4927967;28;20104;-81
2023/04/18 06:52:12;;;;;;;13.38;9.25;;;;;;;6.64;100.00;102156.94;4958944;28;20042;-80
2023/04/18 06:54:38;;;;;;;13.05;9.05;;;;;;;6.75;100.00;102160.72;4958655;28;20042;-81
2023/04/18 06:57:05;;;;;;;13.73;9.77;;;;;;;6.75;99.63;102164.22;4958521;28;20485;-81
2023/04/18 06:59:31;;;;;;;14.98;9.45;;;;;;;6.78;100.00;102176.44;4958607;28;20576;-81
2023/04/18 07:01:58;;;;;;;13.30;9.77;;;;;;;6.85;99.63;102170.59;4958908;28;20049;-80
2023/04/18 07:04:24;;;;;;;13.88;9.93;;;;;;;6.88;99.04;102170.69;4958816;28;20066;-81
2023/04/18 07:06:51;;;;;;;11.88;8.48;;;;;;;6.85;98.58;102167.13;4942718;28;20123;-81
2023/04/18 07:09:18;;;;;;;13.23;9.18;;;;;;;6.86;97.72;102172.34;4959064;28;20035;-81
2023/04/18 07:11:44;;;;;;;14.13;9.07;;;;;;;6.93;98.80;102178.63;4959099;28;20049;-81
2023/04/18 07:14:11;;;;;;;14.52;10.30;;;;;;;6.98;97.33;102176.19;4958604;28;20069;-80
2023/04/18 07:16:38;;;;;;;17.90;11.45;;;;;;;6.94;97.66;102173.47;4958145;28;20035;-80
2023/04/18 07:19:05;;;;;;;13.43;9.15;;;;;;;6.99;97.47;102171.03;4957866;28;20042;-80
2023/04/18 07:21:32;;;;;;;12.90;9.13;;;;;;;7.04;96.01;102171.13;4958354;28;20057;-81
2023/04/18 07:23:59;;;;;;;16.05;9.40;;;;;;;7.01;96.33;102174.53;4942422;28;20047;-81
2023/04/18 07:26:26;;;;;;;14.52;9.90;;;;;;;7.07;96.54;102174.72;4941965;28;20465;-80
2023/04/18 07:28:52;;;;;;;14.10;9.38;;;;;;;7.14;96.25;102170.56;4957939;28;20485;-81
2023/04/18 07:31:19;;;;;;;16.05;10.10;;;;;;;7.20;95.43;102170.75;4958536;28;20101;-80
2023/04/18 07:33:45;;;;;;;14.45;9.70;;;;;;;7.25;94.94;102181.34;4958398;28;20105;-80
2023/04/18 07:36:12;;;;;;;12.63;9.55;;;;;;;7.27;94.78;102174.44;4958170;28;20078;-81
2023/04/18 07:38:39;;;;;;;16.38;10.27;;;;;;;7.34;94.42;102172.88;4957025;28;20050;-80
2023/04/18 07:41:05;;;;;;;11.93;9.50;;;;;;;7.44;94.40;102165.41;4958311;28;20137;-81
2023/04/18 07:43:32;;;;;;;11.27;9.15;;;;;;;7.45;93.42;102176.69;4941875;28;20046;-80
2023/04/18 07:45:59;;;;;;;14.23;9.80;;;;;;;7.40;93.16;102176.53;4957795;28;20046;-81
2023/04/18 07:48:26;;;;;;;16.65;12.18;;;;;;;7.37;94.02;102176.47;4974249;28;20049;-81
2023/04/18 07:50:56;;;;;;;14.43;9.98;;;;;;;7.31;94.23;102178.00;4941871;28;20150;-80
2023/04/18 07:53:22;;;;;;;17.30;10.15;;;;;;;7.33;94.38;102176.34;4958236;28;20073;-81
2023/04/18 07:55:49;;;;;;;14.05;9.88;;;;;;;7.38;94.30;102175.63;4958188;28;20046;-81
2023/04/18 07:58:16;;;;;;;11.75;9.20;;;;;;;7.40;93.52;102178.28;4974322;28;20042;-81
2023/04/18 08:00:43;;;;;;;14.50;10.45;;;;;;;7.52;92.42;102180.34;4958453;28;20043;-81
2023/04/18 08:03:11;;;;;;;13.35;8.65;;;;;;;7.44;92.01;102183.63;4958030;28;20050;-81
2023/04/18 08:05:39;;;;;;;13.35;9.93;;;;;;;7.38;92.73;102186.06;4973438;28;20458;-81
2023/04/18 08:08:11;;;;;;;13.25;10.52;;;;;;;7.40;92.32;102191.31;4957776;28;20500;-81
2023/04/18 08:10:38;;;;;;;15.57;9.20;;;;;;;7.40;91.75;102193.91;4957902;28;20046;-81
2023/04/18 08:13:04;;;;;;;10.18;8.63;;;;;;;7.48;90.49;102184.56;4974413;28;20046;-81
2023/04/18 08:15:31;;;;;;;13.07;7.82;;;;;;;7.64;88.85;102192.84;4942758;28;20413;-82
2023/04/18 08:17:59;;;;;;;12.38;8.77;;;;;;;7.83;88.18;102187.28;4957853;28;20038;-80
2023/04/18 08:20:25;;;;;;;15.70;8.75;;;;;;;8.07;87.03;102199.22;4974736;28;20086;-80
2023/04/18 08:22:52;;;;;;;12.82;8.35;;;;;;;8.30;86.11;102189.38;4976534;28;20047;-81
2023/04/18 08:25:18;;;;;;;10.05;7.63;;;;;;;8.47;85.35;102194.16;4965377;28;20123;-82
2023/04/18 08:27:45;;;;;;;10.40;8.50;;;;;;;8.78;83.88;102194.03;4947190;28;20057;-80
2023/04/18 08:30:12;;;;;;;11.20;7.85;;;;;;;9.21;82.82;102188.03;4957603;28;20212;-80
2023/04/18 08:32:39;;;;;;;10.45;7.13;;;;;;;9.59;81.78;102186.22;4975117;28;20484;-80
2023/04/18 08:35:06;;;;;;;10.10;7.25;;;;;;;9.98;79.37;102200.00;4962347;28;20533;-80
2023/04/18 08:37:34;;;;;;;10.50;8.45;;;;;;;10.44;77.60;102189.47;4983614;28;20043;-81
2023/04/18 08:40:06;;;;;;;12.45;8.43;;;;;;;11.17;75.62;102185.31;4960732;28;20532;-81
2023/04/18 08:42:33;;;;;;;11.45;7.82;;;;;;;12.42;71.95;102181.41;4973621;28;20585;-81
2023/04/18 08:45:00;;;;;;;10.63;7.68;;;;;;;13.78;65.23;102182.13;4974561;28;20074;-81
2023/04/18 08:47:29;;;;;;;11.23;8.80;;;;;;;14.87;59.38;102176.03;4958443;28;20030;-80
2023/04/18 08:49:57;;;;;;;10.85;6.55;;;;;;;15.92;56.98;102173.78;4958302;28;20038;-82
2023/04/18 08:52:26;;;;;;;9.20;6.70;;;;;;;16.75;52.44;102174.84;4958888;28;20050;-82
2023/04/18 08:54:52;;;;;;;8.93;7.15;;;;;;;17.29;47.66;102171.63;4958912;28;20086;-82
2023/04/18 08:57:25;;;;;;;9.00;7.10;;;;;;;15.52;50.68;102174.88;4942578;28;20038;-81
2023/04/18 08:59:52;;;;;;;10.70;7.65;;;;;;;13.85;54.42;102191.78;4962227;28;20043;-81
2023/04/18 09:02:20;;;;;;;8.48;7.18;;;;;;;12.80;57.61;102190.44;4961285;28;20054;-80
2023/04/18 09:04:51;;;;;;;7.45;6.70;;;;;;;12.31;59.20;102189.19;4961998;28;20046;-80
2023/04/18 09:07:20;;;;;;;8.80;6.53;;;;;;;13.36;57.04;102183.72;4946425;28;20035;-81
2023/04/18 09:09:50;;;;;;;10.20;7.72;;;;;;;14.55;53.26;102186.59;4965243;28;20046;-80
2023/04/18 09:12:24;;;;;;;8.57;6.50;;;;;;;15.60;49.87;102182.75;4969602;28;20046;-81
2023/04/18 09:14:56;;;;;;;;;;;;;;;14.98;50.31;102180.34;4972273;28;20097;-78
2023/04/18 09:17:48;;;;;;;7.10;5.97;;;;;;;14.52;52.20;102183.94;4986432;28;19922;-80
2023/04/18 09:20:39;;;;;;;6.07;5.47;;;;;;;13.91;53.76;102193.56;4997329;23;20120;-80
2023/04/18 09:23:09;;;;;;;8.15;6.05;;;;;;;13.17;55.18;102188.91;4983708;28;20038;-81
2023/04/18 09:25:45;;;;;;;8.63;6.55;;;;;;;12.60;56.90;102191.19;4966521;29;20038;-81
2023/04/18 09:28:25;;;;;;;7.57;6.25;;;;;;;12.26;58.11;102193.53;4967718;29;20098;-80
2023/04/18 09:30:55;;;;;;;7.18;6.55;;;;;;;12.34;57.45;102194.47;4975209;28;20051;-81
2023/04/18 09:33:31;;;;;;;6.10;5.50;;;;;;;12.91;56.27;102187.00;4958880;29;20035;-81
2023/04/18 09:36:23;;;;;;;7.03;5.82;;;;;;;13.27;54.94;102181.94;4956990;29;20481;-81
2023/04/18 09:38:52;;;;;;;8.65;6.88;;;;;;;12.93;56.07;102184.38;4957143;29;20127;-81
2023/04/18 09:41:19;;;;;;;7.10;5.60;;;;;;;12.55;58.12;102187.63;4956669;29;20047;-81
2023/04/18 09:43:46;;;;;;;7.70;6.30;;;;;;;12.61;57.78;102185.06;4941139;29;20046;-81
2023/04/18 09:46:14;;;;;;;8.07;5.90;;;;;;;12.67;57.07;102187.75;4956381;29;20054;-81
2023/04/18 09:48:41;;;;;;;6.03;5.50;;;;;;;12.69;56.78;102183.34;4956830;29;20050;-82
2023/04/18 09:51:11;;;;;;;6.85;6.15;;;;;;;12.54;57.27;102188.50;4972143;28;20039;-80
2023/04/18 09:53:40;;;;;;;6.38;5.60;;;;;;;12.37;57.84;102199.75;4972637;28;20094;-81
2023/04/18 09:56:20;;;;;;;7.85;5.72;;;;;;;12.28;57.62;102196.16;4973008;28;20094;-82
2023/04/18 09:58:50;;;;;;;6.35;5.78;;;;;;;12.28;58.01;102194.44;4956173;29;20035;-82
2023/04/18 10:01:17;;;;;;;8.15;6.10;;;;;;;12.30;57.71;102192.69;4956745;29;20067;-81
2023/04/18 10:03:47;;;;;;;10.57;7.03;;;;;;;12.17;58.00;102198.69;4972381;28;20039;-81
2023/04/18 10:06:16;;;;;;;7.57;5.82;;;;;;;11.92;58.69;102193.19;4956500;29;20119;-81
2023/04/18 10:08:49;;;;;;;6.20;5.55;;;;;;;11.84;58.68;102192.22;4940467;29;20110;-82
2023/04/18 10:11:15;;;;;;;8.00;5.95;;;;;;;11.57;59.51;102191.91;4972479;28;20054;-83
2023/04/18 10:13:47;;;;;;;6.93;5.30;;;;;;;12.68;57.02;102199.13;4972173;28;20043;-81
2023/04/18 10:16:15;;;;;;;5.07;4.60;;;;;;;13.57;53.43;102182.94;4972627;28;20063;-81
2023/04/18 10:18:45;;;;;;;5.50;5.00;;;;;;;13.59;52.23;102180.34;4956668;29;20047;-82
2023/04/18 10:21:12;;;;;;;5.82;5.05;;;;;;;13.44;52.35;102191.66;4956778;28;20471;-81
2023/04/18 10:23:39;;;;;;;5.80;5.28;;;;;;;12.90;54.45;102187.00;4936753;29;20051;-82
2023/04/18 10:26:08;;;;;;;6.70;5.22;;;;;;;12.60;55.43;102187.69;4936648;29;20087;-81
2023/04/18 10:28:55;;;;;;;6.60;5.85;;;;;;;12.13;56.95;102189.03;4937340;29;20382;-80
2023/04/18 10:31:27;;;;;;;9.98;5.63;;;;;;;11.94;58.44;102198.44;4922542;29;20051;-81
2023/04/18 10:33:57;;;;;;;7.05;5.88;;;;;;;11.73;57.27;102195.63;4921706;29;20048;-82
2023/04/18 10:36:27;;;;;;;7.28;5.47;;;;;;;11.69;57.71;102195.56;4938945;29;20040;-82
2023/04/18 10:39:03;;;;;;;7.47;5.43;;;;;;;11.71;57.50;102196.47;4950651;29;20039;-82
2023/04/18 10:41:33;;;;;;;4.90;4.50;;;;;;;11.59;57.62;102187.59;4941040;29;20047;-83
2023/04/18 10:44:08;;;;;;;8.30;6.18;;;;;;;12.07;56.79;102192.47;4937427;29;20471;-83
2023/04/18 10:47:07;;;;;;;6.15;5.57;;;;;;;12.36;55.73;102181.38;4937853;29;20123;-81
2023/04/18 10:49:36;;;;;;;6.68;4.80;;;;;;;12.49;55.05;102188.47;4936219;29;20039;-81
2023/04/18 10:52:05;;;;;;;4.45;4.05;;;;;;;12.42;55.04;102184.03;4936273;29;20498;-81
2023/04/18 10:55:05;;;;;;;6.13;4.97;;;;;;;12.43;54.77;102190.19;4920682;29;20067;-82
2023/04/18 10:57:40;;;;;;;5.35;4.85;;;;;;;12.31;55.04;102183.09;4931316;29;20059;-82
2023/04/18 11:00:11;;;;;;;6.45;4.68;;;;;;;12.19;55.08;102192.59;4936835;29;20127;-82
2023/04/18 11:02:40;;;;;;;4.72;4.20;;;;;;;12.20;55.50;102193.47;4938293;29;20039;-81
2023/04/18 11:05:08;;;;;;;5.25;4.75;;;;;;;12.11;55.37;102185.50;4938432;29;20460;-80
2023/04/18 11:07:45;;;;;;;5.80;5.18;;;;;;;12.16;55.26;102184.72;4941571;29;20039;-81
2023/04/18 11:10:13;;;;;;;5.07;4.57;;;;;;;12.12;55.46;102187.28;4942781;29;20098;-80
2023/04/18 11:12:41;;;;;;;6.57;5.50;;;;;;;12.08;55.12;102176.75;4943066;29;20526;-82
2023/04/18 11:15:20;;;;;;;5.95;5.07;;;;;;;11.97;55.92;102177.50;4945845;29;20052;-83
2023/04/18 11:17:58;;;;;;;7.45;5.20;;;;;;;12.24;55.13;102183.03;4944242;29;20091;-82
2023/04/18 11:20:25;;;;;;;4.93;4.43;;;;;;;12.51;54.58;102175.34;4941299;29;20468;-82
2023/04/18 11:22:58;;;;;;;6.43;4.20;;;;;;;13.05;53.45;102166.06;4938092;29;20041;-82
2023/04/18 11:25:35;;;;;;;4.65;4.25;;;;;;;13.33;51.31;102167.94;4939323;29;20455;-83